createdAt,value
2023-03-20T00:02:31.442Z,4.56
2023-03-20T00:04:59.479Z,4.47
2023-03-20T00:07:27.684Z,4.38
2023-03-20T00:10:01.349Z,4.28
2023-03-20T00:12:29.403Z,4.19
2023-03-20T00:15:01.107Z,4.13
2023-03-20T00:17:29.635Z,4.04
2023-03-20T00:19:57.670Z,3.92
2023-03-20T00:22:25.802Z,3.81
2023-03-20T00:24:54.498Z,3.70
2023-03-20T00:27:40.363Z,3.64
2023-03-20T00:30:29.281Z,3.57
2023-03-20T00:32:59.209Z,3.50
2023-03-20T00:35:30.472Z,3.42
2023-03-20T00:38:03.710Z,3.35
2023-03-20T00:40:32.126Z,3.26
2023-03-20T00:43:02.536Z,3.18
2023-03-20T00:45:32.122Z,3.13
2023-03-20T00:48:01.929Z,3.11
2023-03-20T00:50:31.172Z,3.11
2023-03-20T00:53:00.759Z,3.16
2023-03-20T00:55:32.846Z,3.25
2023-03-20T00:58:07.647Z,3.38
2023-03-20T01:00:44.494Z,3.49
2023-03-20T01:03:20.853Z,3.59
2023-03-20T01:05:50.691Z,3.67
2023-03-20T01:08:26.608Z,3.73
2023-03-20T01:10:57.300Z,3.79
2023-03-20T01:13:29.463Z,3.84
2023-03-20T01:16:01.676Z,3.91
2023-03-20T01:18:30.646Z,3.97
2023-03-20T01:20:58.882Z,4.01
2023-03-20T01:23:27.736Z,4.02
2023-03-20T01:25:57.532Z,4.01
2023-03-20T01:28:25.836Z,3.99
2023-03-20T01:30:54.309Z,3.98
2023-03-20T01:33:42.439Z,3.92
2023-03-20T01:36:11.982Z,3.88
2023-03-20T01:38:42.531Z,3.87
2023-03-20T01:41:16.743Z,3.85
2023-03-20T01:43:45.959Z,3.87
2023-03-20T01:46:26.510Z,3.90
2023-03-20T01:49:23.459Z,3.90
2023-03-20T01:51:58.872Z,3.91
2023-03-20T01:54:37.929Z,3.91
2023-03-20T01:57:14.142Z,3.89
2023-03-20T01:59:47.084Z,3.87
2023-03-20T02:02:17.613Z,3.83
2023-03-20T02:04:47.121Z,3.77
2023-03-20T02:07:18.670Z,3.68
2023-03-20T02:10:12.918Z,3.57
2023-03-20T02:13:05.916Z,3.54
2023-03-20T02:15:59.005Z,3.53
2023-03-20T02:18:46.015Z,3.53
2023-03-20T02:21:41.108Z,3.53
2023-03-20T02:24:46.921Z,3.55
2023-03-20T02:27:24.909Z,3.55
2023-03-20T02:30:02.901Z,3.54
2023-03-20T02:33:09.658Z,3.55
2023-03-20T02:35:41.207Z,3.62
2023-03-20T02:38:21.742Z,3.64
2023-03-20T02:40:57.729Z,3.65
2023-03-20T02:43:54.477Z,3.65
2023-03-20T02:46:25.962Z,3.59
2023-03-20T02:49:03.991Z,3.56
2023-03-20T02:51:38.171Z,3.59
2023-03-20T02:54:37.034Z,3.62
2023-03-20T02:57:08.608Z,3.65
2023-03-20T02:59:38.031Z,3.68
2023-03-20T03:02:12.646Z,3.71
2023-03-20T03:04:48.073Z,3.75
2023-03-20T03:07:17.977Z,3.78
2023-03-20T03:09:54.145Z,3.77
2023-03-20T03:12:24.872Z,3.74
2023-03-20T03:14:54.889Z,3.71
2023-03-20T03:17:25.285Z,3.67
2023-03-20T03:19:56.055Z,3.67
2023-03-20T03:22:24.742Z,3.68
2023-03-20T03:24:53.880Z,3.70
2023-03-20T03:27:37.145Z,3.73
2023-03-20T03:30:07.322Z,3.70
2023-03-20T03:32:39.877Z,3.65
2023-03-20T03:35:11.506Z,3.61
2023-03-20T03:37:44.938Z,3.59
2023-03-20T03:40:27.263Z,3.58
2023-03-20T03:43:01.793Z,3.61
2023-03-20T03:45:36.461Z,3.67
2023-03-20T03:48:24.113Z,3.74
2023-03-20T03:50:56.978Z,3.78
2023-03-20T03:53:31.192Z,3.76
2023-03-20T03:56:02.233Z,3.79
2023-03-20T03:58:36.386Z,3.87
2023-03-20T04:01:06.889Z,3.94
2023-03-20T04:03:38.410Z,3.99
2023-03-20T04:06:07.341Z,4.00
2023-03-20T04:08:37.319Z,4.01
2023-03-20T04:11:05.869Z,4.03
2023-03-20T04:13:34.407Z,4.06
2023-03-20T04:16:02.959Z,4.07
2023-03-20T04:18:33.256Z,4.10
2023-03-20T04:21:01.921Z,4.17
2023-03-20T04:23:30.243Z,4.23
2023-03-20T04:26:00.179Z,4.28
2023-03-20T04:28:29.483Z,4.31
2023-03-20T04:31:12.970Z,4.34
2023-03-20T04:33:56.895Z,4.37
2023-03-20T04:36:42.274Z,4.44
2023-03-20T04:39:12.860Z,4.49
2023-03-20T04:41:41.207Z,4.55
2023-03-20T04:44:12.912Z,4.62
2023-03-20T04:46:43.634Z,4.68
2023-03-20T04:49:23.676Z,4.77
2023-03-20T04:51:52.548Z,4.88
2023-03-20T04:54:36.893Z,5.02
2023-03-20T04:57:05.675Z,5.17
2023-03-20T04:59:35.041Z,5.29
2023-03-20T05:02:06.656Z,5.44
2023-03-20T05:04:34.979Z,5.59
2023-03-20T05:07:03.608Z,5.71
2023-03-20T05:09:42.423Z,5.81
2023-03-20T05:12:14.385Z,5.95
2023-03-20T05:15:03.537Z,6.10
2023-03-20T05:17:56.582Z,6.19
2023-03-20T05:20:56.241Z,6.26
2023-03-20T05:23:45.207Z,6.35
2023-03-20T05:26:32.536Z,6.43
2023-03-20T05:29:06.756Z,6.52
2023-03-20T05:32:04.467Z,6.84
2023-03-20T05:34:53.046Z,7.41
2023-03-20T05:37:28.254Z,7.92
2023-03-20T05:40:07.814Z,8.35
2023-03-20T05:42:44.855Z,8.71
2023-03-20T05:45:33.117Z,9.21
2023-03-20T05:48:33.929Z,9.76
2023-03-20T05:51:27.936Z,10.21
2023-03-20T05:54:03.122Z,10.57
2023-03-20T05:56:44.723Z,10.80
2023-03-20T05:59:24.195Z,11.03
2023-03-20T06:02:15.728Z,11.31
2023-03-20T06:04:51.565Z,11.67
2023-03-20T06:07:30.132Z,11.95
2023-03-20T06:10:12.859Z,12.07
2023-03-20T06:12:44.134Z,12.09
2023-03-20T06:15:13.393Z,12.05
2023-03-20T06:17:45.479Z,11.93
2023-03-20T06:20:16.332Z,11.83
2023-03-20T06:22:45.594Z,11.92
2023-03-20T06:25:20.173Z,12.11
2023-03-20T06:27:48.750Z,12.43
2023-03-20T06:30:22.886Z,12.63
2023-03-20T06:32:53.039Z,12.92
2023-03-20T06:35:21.683Z,13.32
2023-03-20T06:37:51.049Z,13.65
2023-03-20T06:40:25.695Z,13.96
2023-03-20T06:42:57.275Z,14.16
2023-03-20T06:45:30.139Z,14.28
2023-03-20T06:48:09.035Z,14.35
2023-03-20T06:50:37.819Z,14.60
2023-03-20T06:53:06.840Z,14.93
2023-03-20T06:55:43.889Z,15.20
2023-03-20T06:58:12.657Z,15.30
2023-03-20T07:00:47.112Z,15.44
2023-03-20T07:03:16.863Z,15.66
2023-03-20T07:05:47.055Z,15.89
2023-03-20T07:08:15.329Z,16.15
2023-03-20T07:10:43.896Z,16.48
2023-03-20T07:13:16.728Z,16.70
2023-03-20T07:16:04.826Z,16.90
2023-03-20T07:18:40.180Z,17.06
2023-03-20T07:21:09.109Z,17.24
2023-03-20T07:23:38.466Z,17.23
2023-03-20T07:26:07.118Z,17.00
2023-03-20T07:28:40.796Z,16.91
2023-03-20T07:31:40.331Z,17.07
2023-03-20T07:34:26.810Z,17.45
2023-03-20T07:36:56.701Z,17.78
2023-03-20T07:39:27.062Z,17.92
2023-03-20T07:42:04.840Z,18.06
2023-03-20T07:44:44.585Z,18.26
2023-03-20T07:47:13.781Z,18.25
2023-03-20T07:49:42.708Z,18.33
2023-03-20T07:52:17.319Z,18.29
2023-03-20T07:54:45.743Z,18.41
2023-03-20T07:57:16.892Z,18.40
2023-03-20T07:59:44.899Z,18.78
2023-03-20T08:02:16.362Z,19.23
2023-03-20T08:04:49.169Z,19.56
2023-03-20T08:07:18.836Z,19.62
2023-03-20T08:09:46.965Z,19.55
2023-03-20T08:12:15.014Z,19.59
2023-03-20T08:14:44.359Z,19.81
2023-03-20T08:17:15.837Z,19.90
2023-03-20T08:19:45.966Z,19.79
2023-03-20T08:22:13.924Z,19.71
2023-03-20T08:24:42.334Z,19.86
2023-03-20T08:27:10.975Z,19.99
2023-03-20T08:29:39.327Z,20.05
2023-03-20T08:32:14.282Z,19.98
2023-03-20T08:34:42.260Z,19.88
2023-03-20T08:37:16.675Z,19.76
2023-03-20T08:39:45.024Z,20.00
2023-03-20T08:42:15.788Z,20.29
2023-03-20T08:44:48.614Z,20.23
2023-03-20T08:47:19.516Z,19.88
2023-03-20T08:49:48.407Z,19.72
2023-03-20T08:52:16.377Z,19.89
2023-03-20T08:54:44.953Z,20.31
2023-03-20T08:57:20.307Z,20.76
2023-03-20T08:59:48.382Z,20.72
2023-03-20T09:02:16.804Z,20.55
2023-03-20T09:04:45.040Z,20.37
2023-03-20T09:07:13.099Z,19.92
2023-03-20T09:09:41.512Z,19.81
2023-03-20T09:12:09.822Z,19.79
2023-03-20T09:14:38.590Z,19.63
2023-03-20T09:17:06.717Z,19.61
2023-03-20T09:19:39.721Z,19.80
2023-03-20T09:22:07.712Z,19.71
2023-03-20T09:24:35.870Z,19.48
2023-03-20T09:27:03.966Z,18.93
2023-03-20T09:29:32.642Z,18.69
2023-03-20T09:32:03.478Z,18.61
2023-03-20T09:34:31.850Z,18.64
2023-03-20T09:37:02.461Z,18.43
2023-03-20T09:39:32.932Z,18.24
2023-03-20T09:42:08.235Z,18.15
2023-03-20T09:44:52.432Z,18.26
2023-03-20T09:47:41.345Z,18.59
2023-03-20T09:50:29.592Z,18.99
2023-03-20T09:53:20.966Z,18.92
2023-03-20T09:55:49.566Z,18.85
2023-03-20T09:58:24.008Z,18.88
2023-03-20T10:00:56.996Z,18.83
2023-03-20T10:03:33.086Z,18.89
2023-03-20T10:06:03.714Z,19.01
2023-03-20T10:08:34.183Z,18.95
2023-03-20T10:11:36.799Z,18.71
2023-03-20T10:14:13.934Z,18.60
2023-03-20T10:17:08.338Z,18.44
2023-03-20T10:19:44.644Z,18.34
2023-03-20T10:22:25.877Z,18.52
2023-03-20T10:24:58.170Z,18.50
2023-03-20T10:27:32.774Z,18.40
2023-03-20T10:30:21.371Z,18.22
2023-03-20T10:33:03.307Z,18.07
2023-03-20T10:35:39.915Z,18.29
2023-03-20T10:38:36.297Z,18.29
2023-03-20T10:41:04.664Z,18.27
2023-03-20T10:43:38.652Z,18.12
2023-03-20T10:46:18.956Z,18.01
2023-03-20T10:48:49.831Z,17.81
2023-03-20T10:51:22.483Z,17.73
2023-03-20T10:53:54.414Z,17.83
2023-03-20T10:56:30.829Z,17.83
2023-03-20T10:59:20.198Z,17.45
2023-03-20T11:01:54.881Z,16.89
2023-03-20T11:04:23.485Z,16.51
2023-03-20T11:07:01.397Z,16.40
2023-03-20T11:09:33.028Z,16.51
2023-03-20T11:12:04.913Z,16.45
2023-03-20T11:14:39.358Z,16.30
2023-03-20T11:17:07.306Z,16.38
2023-03-20T11:19:39.476Z,16.50
2023-03-20T11:22:19.323Z,16.59
2023-03-20T11:24:48.927Z,16.46
2023-03-20T11:27:33.552Z,16.55
2023-03-20T11:30:05.242Z,16.69
2023-03-20T11:32:35.346Z,16.43
2023-03-20T11:35:27.634Z,16.08
2023-03-20T11:38:07.359Z,15.96
2023-03-20T11:40:36.692Z,15.77
2023-03-20T11:43:11.029Z,15.49
2023-03-20T11:45:43.414Z,15.31
2023-03-20T11:48:36.993Z,15.34
2023-03-20T11:51:07.457Z,15.61
2023-03-20T11:53:48.245Z,15.96
2023-03-20T11:56:26.960Z,16.24
2023-03-20T11:59:03.725Z,15.92
2023-03-20T12:01:58.497Z,15.67
2023-03-20T12:04:38.001Z,15.44
2023-03-20T12:07:18.047Z,15.49
2023-03-20T12:09:52.683Z,15.38
2023-03-20T12:12:37.145Z,15.10
2023-03-20T12:15:36.964Z,15.05
2023-03-20T12:18:30.067Z,15.08
2023-03-20T12:21:07.730Z,15.24
2023-03-20T12:23:40.017Z,15.24
2023-03-20T12:26:23.564Z,15.07
2023-03-20T12:28:58.394Z,14.83
2023-03-20T12:31:27.288Z,14.36
2023-03-20T12:34:02.337Z,14.22
2023-03-20T12:36:39.385Z,14.24
2023-03-20T12:39:12.553Z,14.29
2023-03-20T12:41:43.969Z,14.34
2023-03-20T12:44:28.374Z,14.24
2023-03-20T12:46:56.671Z,14.18
2023-03-20T12:49:52.731Z,14.11
2023-03-20T12:52:48.962Z,14.15
2023-03-20T12:55:31.777Z,14.26
2023-03-20T12:58:22.787Z,14.25
2023-03-20T13:00:57.196Z,14.33
2023-03-20T13:03:46.303Z,14.40
2023-03-20T13:06:52.639Z,14.39
2023-03-20T13:09:59.546Z,14.19
2023-03-20T13:12:51.239Z,13.92
2023-03-20T13:15:36.159Z,13.70
2023-03-20T13:18:22.411Z,13.61
2023-03-20T13:20:57.360Z,13.63
2023-03-20T13:23:33.727Z,13.75
2023-03-20T13:26:07.886Z,13.77
2023-03-20T13:28:56.265Z,13.67
2023-03-20T13:31:28.092Z,13.69
2023-03-20T13:34:21.075Z,13.67
2023-03-20T13:37:23.393Z,13.76
2023-03-20T13:39:59.767Z,13.74
2023-03-20T13:42:31.602Z,13.80
2023-03-20T13:45:18.101Z,13.70
2023-03-20T13:47:46.520Z,13.53
2023-03-20T13:50:49.803Z,13.53
2023-03-20T13:53:59.101Z,13.55
2023-03-20T13:56:42.727Z,13.51
2023-03-20T13:59:35.788Z,13.44
2023-03-20T14:02:18.395Z,13.36
2023-03-20T14:04:48.244Z,13.06
2023-03-20T14:07:33.752Z,12.88
2023-03-20T14:10:21.905Z,12.76
2023-03-20T14:12:57.735Z,12.60
2023-03-20T14:15:27.955Z,12.52
2023-03-20T14:17:56.512Z,12.35
2023-03-20T14:20:53.271Z,12.29
2023-03-20T14:23:35.793Z,12.29
2023-03-20T14:26:11.531Z,12.24
2023-03-20T14:29:05.524Z,12.15
2023-03-20T14:31:37.918Z,12.00
2023-03-20T14:34:11.960Z,11.87
2023-03-20T14:37:00.632Z,11.81
2023-03-20T14:39:45.858Z,11.81
2023-03-20T14:42:19.760Z,11.81
2023-03-20T14:45:21.694Z,11.82
2023-03-20T14:48:22.078Z,11.84
2023-03-20T14:50:51.943Z,11.81
2023-03-20T14:53:24.705Z,11.72
2023-03-20T14:56:02.250Z,11.54
2023-03-20T14:58:33.765Z,11.58
2023-03-20T15:01:03.852Z,11.56
2023-03-20T15:03:32.178Z,11.48
2023-03-20T15:06:02.304Z,11.32
2023-03-20T15:08:36.092Z,11.13
2023-03-20T15:11:08.923Z,11.09
2023-03-20T15:13:36.992Z,10.98
2023-03-20T15:16:07.847Z,10.87
2023-03-20T15:18:56.327Z,10.72
2023-03-20T15:21:38.583Z,10.54
2023-03-20T15:24:08.767Z,10.38
2023-03-20T15:26:36.812Z,10.22
2023-03-20T15:29:11.177Z,10.15
2023-03-20T15:31:41.834Z,10.06
2023-03-20T15:34:21.541Z,9.92
2023-03-20T15:36:49.852Z,9.88
2023-03-20T15:39:22.822Z,9.83
2023-03-20T15:42:15.300Z,9.78
2023-03-20T15:44:45.283Z,9.70
2023-03-20T15:47:21.580Z,9.64
2023-03-20T15:49:53.865Z,9.53
2023-03-20T15:52:29.151Z,9.41
2023-03-20T15:54:58.371Z,9.34
2023-03-20T15:57:35.456Z,9.27
2023-03-20T16:00:08.212Z,9.16
2023-03-20T16:02:36.912Z,9.06
2023-03-20T16:05:05.880Z,9.00
2023-03-20T16:07:34.407Z,8.92
2023-03-20T16:10:02.830Z,8.87
2023-03-20T16:12:35.839Z,8.75
2023-03-20T16:15:05.977Z,8.72
2023-03-20T16:17:36.234Z,8.65
2023-03-20T16:20:05.066Z,8.62
2023-03-20T16:22:33.575Z,8.62
2023-03-20T16:25:01.926Z,8.58
2023-03-20T16:27:36.439Z,8.51
2023-03-20T16:30:12.458Z,8.45
2023-03-20T16:32:42.122Z,8.38
2023-03-20T16:35:32.437Z,8.29
2023-03-20T16:38:01.455Z,8.25
2023-03-20T16:40:33.004Z,8.24
2023-03-20T16:43:30.673Z,8.20
2023-03-20T16:46:03.827Z,8.15
2023-03-20T16:48:32.719Z,8.11
2023-03-20T16:51:04.150Z,8.07
2023-03-20T16:53:38.192Z,8.05
2023-03-20T16:56:11.840Z,8.07
2023-03-20T16:58:41.377Z,8.08
2023-03-20T17:01:19.636Z,8.08
2023-03-20T17:03:50.666Z,8.07
2023-03-20T17:06:21.694Z,8.06
2023-03-20T17:08:53.806Z,8.07
2023-03-20T17:11:23.047Z,8.07
2023-03-20T17:13:56.347Z,8.08
2023-03-20T17:16:24.753Z,8.08
2023-03-20T17:19:00.649Z,8.08
2023-03-20T17:21:31.663Z,8.07
2023-03-20T17:23:59.855Z,8.06
2023-03-20T17:26:27.887Z,8.03
2023-03-20T17:28:56.614Z,8.01
2023-03-20T17:31:24.985Z,7.99
2023-03-20T17:33:56.633Z,7.96
2023-03-20T17:36:27.727Z,7.92
2023-03-20T17:38:56.368Z,7.87
2023-03-20T17:41:25.815Z,7.86
2023-03-20T17:43:59.512Z,7.85
2023-03-20T17:46:29.635Z,7.86
2023-03-20T17:49:01.749Z,7.86
2023-03-20T17:51:30.092Z,7.86
2023-03-20T17:53:58.106Z,7.86
2023-03-20T17:56:32.614Z,7.84
2023-03-20T17:59:02.930Z,7.82
2023-03-20T18:01:34.066Z,7.81
2023-03-20T18:04:02.343Z,7.79
2023-03-20T18:06:32.883Z,7.77
2023-03-20T18:09:02.457Z,7.75
2023-03-20T18:11:33.315Z,7.77
2023-03-20T18:14:06.702Z,7.76
2023-03-20T18:16:34.920Z,7.64
2023-03-20T18:19:03.871Z,7.71
2023-03-20T18:21:34.312Z,7.67
2023-03-20T18:24:03.313Z,7.61
2023-03-20T18:26:33.107Z,7.53
2023-03-20T18:29:01.154Z,7.48
2023-03-20T18:31:29.674Z,7.44
2023-03-20T18:33:58.534Z,7.39
2023-03-20T18:36:28.114Z,7.36
2023-03-20T18:38:56.228Z,7.30
2023-03-20T18:41:25.005Z,7.24
2023-03-20T18:43:55.609Z,7.18
2023-03-20T18:46:24.717Z,7.13
2023-03-20T18:49:01.024Z,7.10
2023-03-20T18:51:29.356Z,7.05
2023-03-20T18:53:57.425Z,6.97
2023-03-20T18:56:25.931Z,6.92
2023-03-20T18:58:54.242Z,6.88
2023-03-20T19:01:22.639Z,6.83
2023-03-20T19:03:53.845Z,6.79
2023-03-20T19:06:23.581Z,6.77
2023-03-20T19:08:52.036Z,6.76
2023-03-20T19:11:21.704Z,6.77
2023-03-20T19:13:52.746Z,6.76
2023-03-20T19:16:29.360Z,6.73
2023-03-20T19:18:59.758Z,6.71
2023-03-20T19:21:29.202Z,6.69
2023-03-20T19:24:02.600Z,6.66
2023-03-20T19:26:31.826Z,6.63
2023-03-20T19:29:01.392Z,6.59
2023-03-20T19:31:31.369Z,6.56
2023-03-20T19:33:59.733Z,6.55
2023-03-20T19:36:35.932Z,6.53
2023-03-20T19:39:06.789Z,6.51
2023-03-20T19:41:35.436Z,6.48
2023-03-20T19:44:03.491Z,6.44
2023-03-20T19:46:42.528Z,6.40
2023-03-20T19:49:19.817Z,6.37
2023-03-20T19:51:49.191Z,6.38
2023-03-20T19:54:17.457Z,6.36
2023-03-20T19:56:46.008Z,6.33
2023-03-20T19:59:17.138Z,6.31
2023-03-20T20:01:46.152Z,6.28
2023-03-20T20:04:15.084Z,6.25
2023-03-20T20:06:43.587Z,6.21
2023-03-20T20:09:14.902Z,6.17
2023-03-20T20:11:44.141Z,6.13
2023-03-20T20:14:14.802Z,6.08
2023-03-20T20:16:45.609Z,6.06
2023-03-20T20:19:13.726Z,6.02
2023-03-20T20:24:31.435Z,5.98
2023-03-20T20:27:17.084Z,5.96
2023-03-20T20:29:53.752Z,5.93
2023-03-20T20:32:23.976Z,5.90
2023-03-20T20:40:34.931Z,5.87
2023-03-20T20:43:08.412Z,5.86
2023-03-20T20:45:43.611Z,5.85
2023-03-20T20:48:12.752Z,5.84
2023-03-20T20:50:43.590Z,5.82
2023-03-20T20:53:16.509Z,5.80
2023-03-20T20:55:48.127Z,5.80
2023-03-20T20:58:17.845Z,5.78
2023-03-20T21:00:52.532Z,5.78
2023-03-20T21:03:25.174Z,5.78
2023-03-20T21:05:53.916Z,5.80
2023-03-20T21:08:23.035Z,5.48
2023-03-20T21:10:55.320Z,5.66
2023-03-20T21:13:24.580Z,5.78
2023-03-20T21:15:59.689Z,5.82
2023-03-20T21:18:28.770Z,5.83
2023-03-20T21:21:17.364Z,5.86
2023-03-20T21:23:45.314Z,5.88
2023-03-20T21:26:14.910Z,5.90
2023-03-20T21:28:43.027Z,5.91
2023-03-20T21:31:24.417Z,5.93
2023-03-20T21:33:54.279Z,5.93
2023-03-20T21:36:23.399Z,5.93
2023-03-20T21:39:09.010Z,5.90
2023-03-20T21:41:40.737Z,5.88
2023-03-20T21:44:16.594Z,5.85
2023-03-20T21:47:22.675Z,5.81
2023-03-20T21:53:06.026Z,5.78
2023-03-20T21:58:53.805Z,5.72
2023-03-20T22:01:39.734Z,5.69
2023-03-20T22:04:31.802Z,5.68
2023-03-20T22:07:18.934Z,5.64
2023-03-20T22:10:03.606Z,5.60
2023-03-20T22:27:03.352Z,5.50
2023-03-20T22:32:44.862Z,5.44
2023-03-20T22:35:38.482Z,5.42
2023-03-20T22:41:18.391Z,5.40
2023-03-20T22:46:16.778Z,5.37
2023-03-20T22:48:48.356Z,5.36
2023-03-20T22:51:18.276Z,5.36
2023-03-20T22:53:51.923Z,5.38
2023-03-20T22:56:22.691Z,5.37
2023-03-20T22:58:50.658Z,5.39
2023-03-20T23:01:20.598Z,5.41
2023-03-20T23:03:49.274Z,5.43
2023-03-20T23:06:21.845Z,5.45
2023-03-20T23:08:55.375Z,5.48
2023-03-20T23:11:24.886Z,5.51
2023-03-20T23:13:52.929Z,5.52
2023-03-20T23:16:21.586Z,5.54
2023-03-20T23:18:49.714Z,5.57
2023-03-20T23:21:22.125Z,5.59
2023-03-20T23:23:50.176Z,5.60
2023-03-20T23:26:20.711Z,5.63
2023-03-20T23:28:52.074Z,5.64
2023-03-20T23:31:22.428Z,5.63
2023-03-20T23:33:54.209Z,5.63
2023-03-20T23:36:35.472Z,5.63
2023-03-20T23:39:08.617Z,5.63
2023-03-20T23:44:26.294Z,5.64
2023-03-20T23:47:01.388Z,5.64
2023-03-20T23:49:32.169Z,5.64
2023-03-20T23:52:04.246Z,5.64
2023-03-20T23:54:32.577Z,5.61
2023-03-20T23:57:03.011Z,5.61
2023-03-20T23:59:31.329Z,5.60
